sensor_id;sensor_type;location;lat;lon;timestamp;temperature;humidity
23411;DHT22;11878;51.774;7.220;2023-05-21T00:00:36;14.10;99.90
23411;DHT22;11878;51.774;7.220;2023-05-21T00:03:38;14.10;99.90
23411;DHT22;11878;51.774;7.220;2023-05-21T00:06:42;14.00;99.90
23411;DHT22;11878;51.774;7.220;2023-05-21T00:09:44;14.00;99.90
23411;DHT22;11878;51.774;7.220;2023-05-21T00:12:45;14.00;99.90
23411;DHT22;11878;51.774;7.220;2023-05-21T00:15:47;14.00;99.90
23411;DHT22;11878;51.774;7.220;2023-05-21T00:18:49;13.90;99.90
23411;DHT22;11878;51.774;7.220;2023-05-21T00:21:51;13.90;99.90
23411;DHT22;11878;51.774;7.220;2023-05-21T00:24:53;13.90;99.90
23411;DHT22;11878;51.774;7.220;2023-05-21T00:27:55;13.80;99.90
23411;DHT22;11878;51.774;7.220;2023-05-21T00:30:56;13.90;99.90
23411;DHT22;11878;51.774;7.220;2023-05-21T00:33:58;13.80;99.90
23411;DHT22;11878;51.774;7.220;2023-05-21T00:37:00;13.80;99.90
23411;DHT22;11878;51.774;7.220;2023-05-21T00:40:04;13.80;99.90
23411;DHT22;11878;51.774;7.220;2023-05-21T00:43:08;13.80;99.90
23411;DHT22;11878;51.774;7.220;2023-05-21T00:46:14;13.80;99.90
23411;DHT22;11878;51.774;7.220;2023-05-21T00:49:18;13.80;99.90
23411;DHT22;11878;51.774;7.220;2023-05-21T00:52:20;13.70;99.90
23411;DHT22;11878;51.774;7.220;2023-05-21T00:55:23;13.70;99.90
23411;DHT22;11878;51.774;7.220;2023-05-21T00:58:25;13.80;99.90
23411;DHT22;11878;51.774;7.220;2023-05-21T01:01:27;13.80;99.90
23411;DHT22;11878;51.774;7.220;2023-05-21T01:04:35;13.80;99.90
23411;DHT22;11878;51.774;7.220;2023-05-21T01:07:38;13.80;99.90
23411;DHT22;11878;51.774;7.220;2023-05-21T01:10:41;13.80;99.90
23411;DHT22;11878;51.774;7.220;2023-05-21T01:13:43;13.80;99.90
23411;DHT22;11878;51.774;7.220;2023-05-21T01:16:48;13.80;99.90
23411;DHT22;11878;51.774;7.220;2023-05-21T01:19:51;13.70;99.90
23411;DHT22;11878;51.774;7.220;2023-05-21T01:22:54;13.80;99.90
23411;DHT22;11878;51.774;7.220;2023-05-21T01:25:57;13.70;99.90
23411;DHT22;11878;51.774;7.220;2023-05-21T01:28:59;13.80;99.90
23411;DHT22;11878;51.774;7.220;2023-05-21T01:35:32;13.70;99.90
23411;DHT22;11878;51.774;7.220;2023-05-21T01:38:40;13.70;99.90
23411;DHT22;11878;51.774;7.220;2023-05-21T01:41:44;13.70;99.90
23411;DHT22;11878;51.774;7.220;2023-05-21T01:44:47;13.70;99.90
23411;DHT22;11878;51.774;7.220;2023-05-21T01:47:53;13.70;99.90
23411;DHT22;11878;51.774;7.220;2023-05-21T01:51:02;13.60;99.90
23411;DHT22;11878;51.774;7.220;2023-05-21T01:54:04;13.60;99.90
23411;DHT22;11878;51.774;7.220;2023-05-21T01:57:06;13.60;99.90
23411;DHT22;11878;51.774;7.220;2023-05-21T02:00:08;13.60;99.90
23411;DHT22;11878;51.774;7.220;2023-05-21T02:03:16;13.60;99.90
23411;DHT22;11878;51.774;7.220;2023-05-21T02:06:19;13.60;99.90
23411;DHT22;11878;51.774;7.220;2023-05-21T02:09:20;13.60;99.90
23411;DHT22;11878;51.774;7.220;2023-05-21T02:12:22;13.60;99.90
23411;DHT22;11878;51.774;7.220;2023-05-21T02:15:24;13.50;99.90
23411;DHT22;11878;51.774;7.220;2023-05-21T02:18:26;13.50;99.90
23411;DHT22;11878;51.774;7.220;2023-05-21T02:21:30;13.50;99.90
23411;DHT22;11878;51.774;7.220;2023-05-21T02:24:32;13.50;99.90
23411;DHT22;11878;51.774;7.220;2023-05-21T02:27:37;13.40;99.90
23411;DHT22;11878;51.774;7.220;2023-05-21T02:30:39;13.40;99.90
23411;DHT22;11878;51.774;7.220;2023-05-21T02:33:41;13.40;99.90
23411;DHT22;11878;51.774;7.220;2023-05-21T02:36:43;13.40;99.90
23411;DHT22;11878;51.774;7.220;2023-05-21T02:39:45;13.40;99.90
23411;DHT22;11878;51.774;7.220;2023-05-21T02:42:47;13.40;99.90
23411;DHT22;11878;51.774;7.220;2023-05-21T02:45:52;13.40;99.90
23411;DHT22;11878;51.774;7.220;2023-05-21T02:48:54;13.40;99.90
23411;DHT22;11878;51.774;7.220;2023-05-21T02:51:56;13.40;99.90
23411;DHT22;11878;51.774;7.220;2023-05-21T02:54:58;13.30;99.90
23411;DHT22;11878;51.774;7.220;2023-05-21T02:58:00;13.30;99.90
23411;DHT22;11878;51.774;7.220;2023-05-21T03:01:01;13.30;99.90
23411;DHT22;11878;51.774;7.220;2023-05-21T03:04:03;13.40;99.90
23411;DHT22;11878;51.774;7.220;2023-05-21T03:07:05;13.40;99.90
23411;DHT22;11878;51.774;7.220;2023-05-21T03:10:07;13.40;99.90
23411;DHT22;11878;51.774;7.220;2023-05-21T03:13:09;13.30;99.90
23411;DHT22;11878;51.774;7.220;2023-05-21T03:16:11;13.40;99.90
23411;DHT22;11878;51.774;7.220;2023-05-21T03:19:13;13.40;99.90
23411;DHT22;11878;51.774;7.220;2023-05-21T03:22:15;13.30;99.90
23411;DHT22;11878;51.774;7.220;2023-05-21T03:25:17;13.30;99.90
23411;DHT22;11878;51.774;7.220;2023-05-21T03:28:19;13.20;99.90
23411;DHT22;11878;51.774;7.220;2023-05-21T03:31:23;13.20;99.90
23411;DHT22;11878;51.774;7.220;2023-05-21T03:34:58;13.20;99.90
23411;DHT22;11878;51.774;7.220;2023-05-21T03:38:00;13.20;99.90
23411;DHT22;11878;51.774;7.220;2023-05-21T03:41:02;13.20;99.90
23411;DHT22;11878;51.774;7.220;2023-05-21T03:44:04;13.20;99.90
23411;DHT22;11878;51.774;7.220;2023-05-21T03:47:18;13.20;99.90
23411;DHT22;11878;51.774;7.220;2023-05-21T03:50:23;13.20;99.90
23411;DHT22;11878;51.774;7.220;2023-05-21T03:53:25;13.20;99.90
23411;DHT22;11878;51.774;7.220;2023-05-21T03:56:27;13.20;99.90
23411;DHT22;11878;51.774;7.220;2023-05-21T03:59:29;13.20;99.90
23411;DHT22;11878;51.774;7.220;2023-05-21T04:02:32;12.50;99.90
23411;DHT22;11878;51.774;7.220;2023-05-21T04:05:34;13.10;99.90
23411;DHT22;11878;51.774;7.220;2023-05-21T04:08:36;13.20;99.90
23411;DHT22;11878;51.774;7.220;2023-05-21T04:11:38;13.20;99.90
23411;DHT22;11878;51.774;7.220;2023-05-21T04:14:40;13.30;99.90
23411;DHT22;11878;51.774;7.220;2023-05-21T04:17:42;13.30;99.90
23411;DHT22;11878;51.774;7.220;2023-05-21T04:20:43;13.30;99.90
23411;DHT22;11878;51.774;7.220;2023-05-21T04:23:45;13.30;99.90
23411;DHT22;11878;51.774;7.220;2023-05-21T04:26:59;13.20;99.90
23411;DHT22;11878;51.774;7.220;2023-05-21T04:30:04;13.30;99.90
23411;DHT22;11878;51.774;7.220;2023-05-21T04:33:09;13.30;99.90
23411;DHT22;11878;51.774;7.220;2023-05-21T04:36:11;13.30;99.90
23411;DHT22;11878;51.774;7.220;2023-05-21T04:39:13;13.30;99.90
23411;DHT22;11878;51.774;7.220;2023-05-21T04:42:16;13.30;99.90
23411;DHT22;11878;51.774;7.220;2023-05-21T04:45:20;13.30;99.90
23411;DHT22;11878;51.774;7.220;2023-05-21T04:48:26;13.40;99.90
23411;DHT22;11878;51.774;7.220;2023-05-21T04:51:29;13.40;99.90
23411;DHT22;11878;51.774;7.220;2023-05-21T04:54:31;13.40;99.90
23411;DHT22;11878;51.774;7.220;2023-05-21T04:57:34;13.40;99.90
23411;DHT22;11878;51.774;7.220;2023-05-21T05:00:39;13.40;99.90
23411;DHT22;11878;51.774;7.220;2023-05-21T05:03:44;13.50;99.90
23411;DHT22;11878;51.774;7.220;2023-05-21T05:06:46;13.40;99.90
23411;DHT22;11878;51.774;7.220;2023-05-21T05:09:48;13.50;99.90
23411;DHT22;11878;51.774;7.220;2023-05-21T05:12:50;13.50;99.90
23411;DHT22;11878;51.774;7.220;2023-05-21T05:15:53;13.50;99.90
23411;DHT22;11878;51.774;7.220;2023-05-21T05:18:55;13.50;99.90
23411;DHT22;11878;51.774;7.220;2023-05-21T05:21:57;13.50;99.90
23411;DHT22;11878;51.774;7.220;2023-05-21T05:24:59;13.50;99.90
23411;DHT22;11878;51.774;7.220;2023-05-21T05:28:01;13.60;99.90
23411;DHT22;11878;51.774;7.220;2023-05-21T05:31:03;13.50;99.90
23411;DHT22;11878;51.774;7.220;2023-05-21T05:34:06;13.60;99.90
23411;DHT22;11878;51.774;7.220;2023-05-21T05:37:08;13.60;99.90
23411;DHT22;11878;51.774;7.220;2023-05-21T05:40:10;13.70;99.90
23411;DHT22;11878;51.774;7.220;2023-05-21T05:43:11;13.70;99.90
23411;DHT22;11878;51.774;7.220;2023-05-21T05:46:13;13.80;99.90
23411;DHT22;11878;51.774;7.220;2023-05-21T05:49:17;13.80;99.90
23411;DHT22;11878;51.774;7.220;2023-05-21T05:52:18;13.80;99.90
23411;DHT22;11878;51.774;7.220;2023-05-21T05:55:20;13.90;99.90
23411;DHT22;11878;51.774;7.220;2023-05-21T05:58:22;13.90;99.90
23411;DHT22;11878;51.774;7.220;2023-05-21T06:01:31;14.00;99.90
23411;DHT22;11878;51.774;7.220;2023-05-21T06:04:33;14.00;99.90
23411;DHT22;11878;51.774;7.220;2023-05-21T06:07:39;14.00;99.90
23411;DHT22;11878;51.774;7.220;2023-05-21T06:10:41;14.00;99.90
23411;DHT22;11878;51.774;7.220;2023-05-21T06:13:43;14.10;99.90
23411;DHT22;11878;51.774;7.220;2023-05-21T06:16:46;14.10;99.90
23411;DHT22;11878;51.774;7.220;2023-05-21T06:19:47;14.10;99.90
23411;DHT22;11878;51.774;7.220;2023-05-21T06:22:49;14.10;99.90
23411;DHT22;11878;51.774;7.220;2023-05-21T06:25:51;14.20;99.90
23411;DHT22;11878;51.774;7.220;2023-05-21T06:28:54;14.20;99.90
23411;DHT22;11878;51.774;7.220;2023-05-21T06:31:55;14.20;99.90
23411;DHT22;11878;51.774;7.220;2023-05-21T06:34:57;14.30;99.90
23411;DHT22;11878;51.774;7.220;2023-05-21T06:37:59;14.30;99.90
23411;DHT22;11878;51.774;7.220;2023-05-21T06:41:01;14.40;99.90
23411;DHT22;11878;51.774;7.220;2023-05-21T06:44:26;14.50;99.90
23411;DHT22;11878;51.774;7.220;2023-05-21T06:47:51;14.60;99.90
23411;DHT22;11878;51.774;7.220;2023-05-21T06:50:53;14.60;99.90
23411;DHT22;11878;51.774;7.220;2023-05-21T06:53:55;14.70;99.90
23411;DHT22;11878;51.774;7.220;2023-05-21T06:56:58;14.60;99.90
23411;DHT22;11878;51.774;7.220;2023-05-21T06:59:59;14.80;99.90
23411;DHT22;11878;51.774;7.220;2023-05-21T07:03:04;14.80;99.90
23411;DHT22;11878;51.774;7.220;2023-05-21T07:06:06;14.80;99.90
23411;DHT22;11878;51.774;7.220;2023-05-21T07:09:08;14.90;99.90
23411;DHT22;11878;51.774;7.220;2023-05-21T07:12:11;14.90;99.90
23411;DHT22;11878;51.774;7.220;2023-05-21T07:15:13;15.00;99.90
23411;DHT22;11878;51.774;7.220;2023-05-21T07:18:16;15.10;99.90
23411;DHT22;11878;51.774;7.220;2023-05-21T07:21:18;15.20;99.90
23411;DHT22;11878;51.774;7.220;2023-05-21T07:24:22;15.20;99.90
23411;DHT22;11878;51.774;7.220;2023-05-21T07:27:24;15.30;99.90
23411;DHT22;11878;51.774;7.220;2023-05-21T07:30:28;15.40;99.90
23411;DHT22;11878;51.774;7.220;2023-05-21T07:33:32;15.50;99.90
23411;DHT22;11878;51.774;7.220;2023-05-21T07:36:34;15.50;99.90
23411;DHT22;11878;51.774;7.220;2023-05-21T07:39:36;15.70;99.90
23411;DHT22;11878;51.774;7.220;2023-05-21T07:42:39;15.80;99.90
23411;DHT22;11878;51.774;7.220;2023-05-21T07:45:41;16.00;99.90
23411;DHT22;11878;51.774;7.220;2023-05-21T07:48:43;16.10;99.90
23411;DHT22;11878;51.774;7.220;2023-05-21T07:51:45;16.10;99.90
23411;DHT22;11878;51.774;7.220;2023-05-21T07:54:47;16.30;99.90
23411;DHT22;11878;51.774;7.220;2023-05-21T07:57:49;16.20;99.90
23411;DHT22;11878;51.774;7.220;2023-05-21T08:01:00;16.00;99.90
23411;DHT22;11878;51.774;7.220;2023-05-21T08:04:02;16.10;99.90
23411;DHT22;11878;51.774;7.220;2023-05-21T08:07:10;16.30;99.90
23411;DHT22;11878;51.774;7.220;2023-05-21T08:10:13;16.30;99.90
23411;DHT22;11878;51.774;7.220;2023-05-21T08:13:17;16.40;99.90
23411;DHT22;11878;51.774;7.220;2023-05-21T08:16:21;16.60;99.90
23411;DHT22;11878;51.774;7.220;2023-05-21T08:19:24;16.50;99.90
23411;DHT22;11878;51.774;7.220;2023-05-21T08:22:26;16.60;99.90
23411;DHT22;11878;51.774;7.220;2023-05-21T08:25:28;16.80;99.90
23411;DHT22;11878;51.774;7.220;2023-05-21T08:28:31;17.00;99.90
23411;DHT22;11878;51.774;7.220;2023-05-21T08:31:35;17.00;99.90
23411;DHT22;11878;51.774;7.220;2023-05-21T08:34:37;17.00;99.90
23411;DHT22;11878;51.774;7.220;2023-05-21T08:38:02;17.10;99.90
23411;DHT22;11878;51.774;7.220;2023-05-21T08:41:20;17.40;99.90
23411;DHT22;11878;51.774;7.220;2023-05-21T08:44:25;17.60;99.90
23411;DHT22;11878;51.774;7.220;2023-05-21T08:47:32;17.60;99.90
23411;DHT22;11878;51.774;7.220;2023-05-21T08:50:36;17.70;99.90
23411;DHT22;11878;51.774;7.220;2023-05-21T08:53:45;17.70;99.90
23411;DHT22;11878;51.774;7.220;2023-05-21T08:56:50;17.60;99.90
23411;DHT22;11878;51.774;7.220;2023-05-21T08:59:53;17.80;99.90
23411;DHT22;11878;51.774;7.220;2023-05-21T09:03:00;17.80;99.90
23411;DHT22;11878;51.774;7.220;2023-05-21T09:06:10;17.80;99.90
23411;DHT22;11878;51.774;7.220;2023-05-21T09:09:37;17.80;99.90
23411;DHT22;11878;51.774;7.220;2023-05-21T09:12:40;18.00;99.90
23411;DHT22;11878;51.774;7.220;2023-05-21T09:15:44;17.90;99.90
23411;DHT22;11878;51.774;7.220;2023-05-21T09:18:48;18.00;99.90
23411;DHT22;11878;51.774;7.220;2023-05-21T09:22:01;18.10;99.90
23411;DHT22;11878;51.774;7.220;2023-05-21T09:25:06;18.40;99.90
23411;DHT22;11878;51.774;7.220;2023-05-21T09:28:12;18.60;99.90
23411;DHT22;11878;51.774;7.220;2023-05-21T09:31:14;18.60;99.90
23411;DHT22;11878;51.774;7.220;2023-05-21T09:34:18;18.70;99.90
23411;DHT22;11878;51.774;7.220;2023-05-21T09:37:20;18.80;99.90
23411;DHT22;11878;51.774;7.220;2023-05-21T09:40:27;18.60;99.90
23411;DHT22;11878;51.774;7.220;2023-05-21T09:43:29;18.70;99.90
23411;DHT22;11878;51.774;7.220;2023-05-21T09:46:41;18.40;99.90
23411;DHT22;11878;51.774;7.220;2023-05-21T09:49:43;18.30;99.90
23411;DHT22;11878;51.774;7.220;2023-05-21T09:52:46;18.50;99.90
23411;DHT22;11878;51.774;7.220;2023-05-21T09:55:52;18.80;99.90
23411;DHT22;11878;51.774;7.220;2023-05-21T09:59:02;19.10;99.90
23411;DHT22;11878;51.774;7.220;2023-05-21T10:02:16;19.30;99.90
23411;DHT22;11878;51.774;7.220;2023-05-21T10:05:19;19.60;99.90
23411;DHT22;11878;51.774;7.220;2023-05-21T10:08:25;19.80;99.90
23411;DHT22;11878;51.774;7.220;2023-05-21T10:11:30;19.80;99.90
23411;DHT22;11878;51.774;7.220;2023-05-21T10:14:33;20.10;99.90
23411;DHT22;11878;51.774;7.220;2023-05-21T10:17:36;20.20;99.90
23411;DHT22;11878;51.774;7.220;2023-05-21T10:20:40;20.20;99.90
23411;DHT22;11878;51.774;7.220;2023-05-21T10:23:42;20.30;99.90
23411;DHT22;11878;51.774;7.220;2023-05-21T10:26:45;20.10;99.90
23411;DHT22;11878;51.774;7.220;2023-05-21T10:29:49;20.20;99.90
23411;DHT22;11878;51.774;7.220;2023-05-21T10:32:52;20.30;99.90
23411;DHT22;11878;51.774;7.220;2023-05-21T10:35:57;20.00;99.90
23411;DHT22;11878;51.774;7.220;2023-05-21T10:39:01;19.80;99.90
23411;DHT22;11878;51.774;7.220;2023-05-21T10:48:57;20.00;99.90
23411;DHT22;11878;51.774;7.220;2023-05-21T10:52:17;20.20;99.90
23411;DHT22;11878;51.774;7.220;2023-05-21T10:55:26;20.20;99.90
23411;DHT22;11878;51.774;7.220;2023-05-21T11:02:10;20.20;99.90
23411;DHT22;11878;51.774;7.220;2023-05-21T11:05:13;20.20;99.90
23411;DHT22;11878;51.774;7.220;2023-05-21T11:11:51;20.30;99.90
23411;DHT22;11878;51.774;7.220;2023-05-21T11:14:56;20.60;99.90
23411;DHT22;11878;51.774;7.220;2023-05-21T11:17:58;20.80;99.90
23411;DHT22;11878;51.774;7.220;2023-05-21T11:21:08;21.00;99.90
23411;DHT22;11878;51.774;7.220;2023-05-21T11:24:18;20.90;99.90
23411;DHT22;11878;51.774;7.220;2023-05-21T11:27:33;21.10;99.90
23411;DHT22;11878;51.774;7.220;2023-05-21T11:30:36;21.40;99.90
23411;DHT22;11878;51.774;7.220;2023-05-21T11:33:41;20.60;99.90
23411;DHT22;11878;51.774;7.220;2023-05-21T11:36:44;20.60;99.90
23411;DHT22;11878;51.774;7.220;2023-05-21T11:39:48;20.80;99.90
23411;DHT22;11878;51.774;7.220;2023-05-21T11:42:54;20.80;99.90
23411;DHT22;11878;51.774;7.220;2023-05-21T11:45:56;21.00;99.90
23411;DHT22;11878;51.774;7.220;2023-05-21T11:48:58;21.10;99.90
23411;DHT22;11878;51.774;7.220;2023-05-21T11:52:02;21.00;99.90
23411;DHT22;11878;51.774;7.220;2023-05-21T11:55:04;21.10;99.90
23411;DHT22;11878;51.774;7.220;2023-05-21T11:58:08;20.90;99.90
23411;DHT22;11878;51.774;7.220;2023-05-21T12:01:21;20.90;99.90
23411;DHT22;11878;51.774;7.220;2023-05-21T12:04:27;20.90;99.90
23411;DHT22;11878;51.774;7.220;2023-05-21T12:07:29;21.10;99.90
23411;DHT22;11878;51.774;7.220;2023-05-21T12:10:31;21.20;99.90
23411;DHT22;11878;51.774;7.220;2023-05-21T12:13:33;21.00;99.90
23411;DHT22;11878;51.774;7.220;2023-05-21T12:16:35;21.10;99.90
23411;DHT22;11878;51.774;7.220;2023-05-21T12:19:37;21.10;99.90
23411;DHT22;11878;51.774;7.220;2023-05-21T12:22:40;21.10;99.90
23411;DHT22;11878;51.774;7.220;2023-05-21T12:25:43;21.20;99.90
23411;DHT22;11878;51.774;7.220;2023-05-21T12:28:47;21.10;99.90
23411;DHT22;11878;51.774;7.220;2023-05-21T12:31:49;21.10;99.90
23411;DHT22;11878;51.774;7.220;2023-05-21T12:34:52;21.10;99.90
23411;DHT22;11878;51.774;7.220;2023-05-21T12:37:55;21.00;99.90
23411;DHT22;11878;51.774;7.220;2023-05-21T12:41:03;21.00;99.90
23411;DHT22;11878;51.774;7.220;2023-05-21T12:44:05;21.30;99.90
23411;DHT22;11878;51.774;7.220;2023-05-21T12:47:10;21.30;99.90
23411;DHT22;11878;51.774;7.220;2023-05-21T12:50:11;21.30;99.90
23411;DHT22;11878;51.774;7.220;2023-05-21T12:53:14;21.30;99.90
23411;DHT22;11878;51.774;7.220;2023-05-21T12:56:16;21.40;99.90
23411;DHT22;11878;51.774;7.220;2023-05-21T12:59:18;21.50;99.90
23411;DHT22;11878;51.774;7.220;2023-05-21T13:02:28;21.30;99.90
23411;DHT22;11878;51.774;7.220;2023-05-21T13:05:30;21.30;99.90
23411;DHT22;11878;51.774;7.220;2023-05-21T13:08:32;21.30;99.90
23411;DHT22;11878;51.774;7.220;2023-05-21T13:11:36;21.30;99.90
23411;DHT22;11878;51.774;7.220;2023-05-21T13:14:38;21.20;99.90
23411;DHT22;11878;51.774;7.220;2023-05-21T13:17:40;21.10;99.90
23411;DHT22;11878;51.774;7.220;2023-05-21T13:20:42;21.40;99.90
23411;DHT22;11878;51.774;7.220;2023-05-21T13:23:44;21.60;99.90
23411;DHT22;11878;51.774;7.220;2023-05-21T13:26:46;21.70;99.90
23411;DHT22;11878;51.774;7.220;2023-05-21T13:29:48;21.80;99.90
23411;DHT22;11878;51.774;7.220;2023-05-21T13:32:49;21.80;99.90
23411;DHT22;11878;51.774;7.220;2023-05-21T13:35:52;21.80;99.90
23411;DHT22;11878;51.774;7.220;2023-05-21T13:38:54;21.80;99.90
23411;DHT22;11878;51.774;7.220;2023-05-21T13:41:56;21.90;99.90
23411;DHT22;11878;51.774;7.220;2023-05-21T13:44:59;21.90;99.90
23411;DHT22;11878;51.774;7.220;2023-05-21T13:48:01;22.00;99.90
23411;DHT22;11878;51.774;7.220;2023-05-21T13:51:03;22.00;99.90
23411;DHT22;11878;51.774;7.220;2023-05-21T13:54:05;22.10;99.90
23411;DHT22;11878;51.774;7.220;2023-05-21T13:57:07;22.10;99.90
23411;DHT22;11878;51.774;7.220;2023-05-21T14:00:09;22.10;99.90
23411;DHT22;11878;51.774;7.220;2023-05-21T14:03:13;22.20;99.90
23411;DHT22;11878;51.774;7.220;2023-05-21T14:06:15;22.40;99.90
23411;DHT22;11878;51.774;7.220;2023-05-21T14:09:17;22.40;99.90
23411;DHT22;11878;51.774;7.220;2023-05-21T14:12:18;22.60;99.90
23411;DHT22;11878;51.774;7.220;2023-05-21T14:15:22;22.60;99.90
23411;DHT22;11878;51.774;7.220;2023-05-21T14:18:23;22.50;99.90
23411;DHT22;11878;51.774;7.220;2023-05-21T14:21:25;22.60;99.90
23411;DHT22;11878;51.774;7.220;2023-05-21T14:24:27;22.40;99.90
23411;DHT22;11878;51.774;7.220;2023-05-21T14:27:29;22.50;99.90
23411;DHT22;11878;51.774;7.220;2023-05-21T14:30:30;22.40;99.90
23411;DHT22;11878;51.774;7.220;2023-05-21T14:33:34;22.50;99.90
23411;DHT22;11878;51.774;7.220;2023-05-21T14:36:36;22.50;99.90
23411;DHT22;11878;51.774;7.220;2023-05-21T14:39:38;22.40;99.90
23411;DHT22;11878;51.774;7.220;2023-05-21T14:42:39;22.50;99.90
23411;DHT22;11878;51.774;7.220;2023-05-21T14:45:41;22.60;99.90
23411;DHT22;11878;51.774;7.220;2023-05-21T14:48:43;22.70;99.90
23411;DHT22;11878;51.774;7.220;2023-05-21T14:51:47;22.70;99.90
23411;DHT22;11878;51.774;7.220;2023-05-21T14:54:48;22.60;99.90
23411;DHT22;11878;51.774;7.220;2023-05-21T14:57:50;22.60;99.90
23411;DHT22;11878;51.774;7.220;2023-05-21T15:00:52;22.50;99.90
23411;DHT22;11878;51.774;7.220;2023-05-21T15:03:54;22.60;99.90
23411;DHT22;11878;51.774;7.220;2023-05-21T15:06:57;22.70;99.90
23411;DHT22;11878;51.774;7.220;2023-05-21T15:09:59;22.80;99.90
23411;DHT22;11878;51.774;7.220;2023-05-21T15:13:01;22.90;99.90
23411;DHT22;11878;51.774;7.220;2023-05-21T15:16:02;22.70;99.90
23411;DHT22;11878;51.774;7.220;2023-05-21T15:19:04;22.80;99.90
23411;DHT22;11878;51.774;7.220;2023-05-21T15:22:06;23.00;99.90
23411;DHT22;11878;51.774;7.220;2023-05-21T15:25:08;23.00;99.90
23411;DHT22;11878;51.774;7.220;2023-05-21T15:28:10;23.10;99.90
23411;DHT22;11878;51.774;7.220;2023-05-21T15:31:12;23.10;99.90
23411;DHT22;11878;51.774;7.220;2023-05-21T15:34:14;23.20;99.90
23411;DHT22;11878;51.774;7.220;2023-05-21T15:37:18;23.30;99.90
23411;DHT22;11878;51.774;7.220;2023-05-21T15:40:20;23.10;99.90
23411;DHT22;11878;51.774;7.220;2023-05-21T15:43:22;23.00;99.90
23411;DHT22;11878;51.774;7.220;2023-05-21T15:46:23;23.00;99.90
23411;DHT22;11878;51.774;7.220;2023-05-21T15:49:25;22.80;99.90
23411;DHT22;11878;51.774;7.220;2023-05-21T15:52:27;22.90;99.90
23411;DHT22;11878;51.774;7.220;2023-05-21T15:55:32;22.80;99.90
23411;DHT22;11878;51.774;7.220;2023-05-21T15:58:34;22.70;99.90
23411;DHT22;11878;51.774;7.220;2023-05-21T16:01:36;22.70;99.90
23411;DHT22;11878;51.774;7.220;2023-05-21T16:04:39;22.70;99.90
23411;DHT22;11878;51.774;7.220;2023-05-21T16:07:41;22.60;99.90
23411;DHT22;11878;51.774;7.220;2023-05-21T16:10:42;22.50;99.90
23411;DHT22;11878;51.774;7.220;2023-05-21T16:13:46;22.40;99.90
23411;DHT22;11878;51.774;7.220;2023-05-21T16:16:48;22.30;99.90
23411;DHT22;11878;51.774;7.220;2023-05-21T16:19:49;22.40;99.90
23411;DHT22;11878;51.774;7.220;2023-05-21T16:22:51;22.40;99.90
23411;DHT22;11878;51.774;7.220;2023-05-21T16:25:53;22.40;99.90
23411;DHT22;11878;51.774;7.220;2023-05-21T16:28:55;22.50;99.90
23411;DHT22;11878;51.774;7.220;2023-05-21T16:31:56;22.50;99.90
23411;DHT22;11878;51.774;7.220;2023-05-21T16:34:58;22.50;99.90
23411;DHT22;11878;51.774;7.220;2023-05-21T16:38:00;22.50;99.90
23411;DHT22;11878;51.774;7.220;2023-05-21T16:41:02;22.30;99.90
23411;DHT22;11878;51.774;7.220;2023-05-21T16:44:04;22.20;99.90
23411;DHT22;11878;51.774;7.220;2023-05-21T16:47:05;22.10;99.90
23411;DHT22;11878;51.774;7.220;2023-05-21T16:50:08;22.10;99.90
23411;DHT22;11878;51.774;7.220;2023-05-21T16:53:09;22.00;99.90
23411;DHT22;11878;51.774;7.220;2023-05-21T16:56:11;22.00;99.90
23411;DHT22;11878;51.774;7.220;2023-05-21T16:59:13;22.10;99.90
23411;DHT22;11878;51.774;7.220;2023-05-21T17:02:15;22.00;99.90
23411;DHT22;11878;51.774;7.220;2023-05-21T17:05:17;22.10;99.90
23411;DHT22;11878;51.774;7.220;2023-05-21T17:08:19;22.30;99.90
23411;DHT22;11878;51.774;7.220;2023-05-21T17:11:21;22.20;99.90
23411;DHT22;11878;51.774;7.220;2023-05-21T17:14:22;22.20;99.90
23411;DHT22;11878;51.774;7.220;2023-05-21T17:17:35;22.10;99.90
23411;DHT22;11878;51.774;7.220;2023-05-21T17:20:37;22.30;99.90
23411;DHT22;11878;51.774;7.220;2023-05-21T17:23:39;22.20;99.90
23411;DHT22;11878;51.774;7.220;2023-05-21T17:26:43;22.20;99.90
23411;DHT22;11878;51.774;7.220;2023-05-21T17:29:45;22.00;99.90
23411;DHT22;11878;51.774;7.220;2023-05-21T17:32:47;22.00;99.90
23411;DHT22;11878;51.774;7.220;2023-05-21T17:35:49;22.00;99.90
23411;DHT22;11878;51.774;7.220;2023-05-21T17:38:50;22.00;99.90
23411;DHT22;11878;51.774;7.220;2023-05-21T17:41:52;21.90;99.90
23411;DHT22;11878;51.774;7.220;2023-05-21T17:44:54;21.80;99.90
23411;DHT22;11878;51.774;7.220;2023-05-21T17:47:56;22.00;99.90
23411;DHT22;11878;51.774;7.220;2023-05-21T17:51:01;21.90;99.90
23411;DHT22;11878;51.774;7.220;2023-05-21T17:54:03;21.80;99.90
23411;DHT22;11878;51.774;7.220;2023-05-21T17:57:05;21.80;99.90
23411;DHT22;11878;51.774;7.220;2023-05-21T18:00:07;21.70;99.90
23411;DHT22;11878;51.774;7.220;2023-05-21T18:03:13;21.60;99.90
23411;DHT22;11878;51.774;7.220;2023-05-21T18:06:15;21.60;99.90
23411;DHT22;11878;51.774;7.220;2023-05-21T18:09:17;21.50;99.90
23411;DHT22;11878;51.774;7.220;2023-05-21T18:12:19;21.40;99.90
23411;DHT22;11878;51.774;7.220;2023-05-21T18:15:20;21.50;99.90
23411;DHT22;11878;51.774;7.220;2023-05-21T18:18:22;21.40;99.90
23411;DHT22;11878;51.774;7.220;2023-05-21T18:21:24;21.40;99.90
23411;DHT22;11878;51.774;7.220;2023-05-21T18:24:26;21.30;99.90
23411;DHT22;11878;51.774;7.220;2023-05-21T18:27:28;21.30;99.90
23411;DHT22;11878;51.774;7.220;2023-05-21T18:30:30;21.30;99.90
23411;DHT22;11878;51.774;7.220;2023-05-21T18:33:31;21.20;99.90
23411;DHT22;11878;51.774;7.220;2023-05-21T18:36:33;21.20;99.90
23411;DHT22;11878;51.774;7.220;2023-05-21T18:39:39;21.20;99.90
23411;DHT22;11878;51.774;7.220;2023-05-21T18:42:40;21.10;99.90
23411;DHT22;11878;51.774;7.220;2023-05-21T18:45:43;21.10;99.90
23411;DHT22;11878;51.774;7.220;2023-05-21T18:48:45;21.10;99.90
23411;DHT22;11878;51.774;7.220;2023-05-21T18:51:48;20.90;99.90
23411;DHT22;11878;51.774;7.220;2023-05-21T18:54:50;20.90;99.90
23411;DHT22;11878;51.774;7.220;2023-05-21T18:57:53;20.80;99.90
23411;DHT22;11878;51.774;7.220;2023-05-21T19:00:55;20.80;99.90
23411;DHT22;11878;51.774;7.220;2023-05-21T19:03:56;20.70;99.90
23411;DHT22;11878;51.774;7.220;2023-05-21T19:06:59;20.60;99.90
23411;DHT22;11878;51.774;7.220;2023-05-21T19:10:01;20.60;99.90
23411;DHT22;11878;51.774;7.220;2023-05-21T19:13:03;20.60;99.90
23411;DHT22;11878;51.774;7.220;2023-05-21T19:16:07;20.60;99.90
23411;DHT22;11878;51.774;7.220;2023-05-21T19:19:11;20.50;99.90
23411;DHT22;11878;51.774;7.220;2023-05-21T19:22:13;20.40;99.90
23411;DHT22;11878;51.774;7.220;2023-05-21T19:25:15;20.40;99.90
23411;DHT22;11878;51.774;7.220;2023-05-21T19:28:17;20.20;99.90
23411;DHT22;11878;51.774;7.220;2023-05-21T19:31:20;20.10;99.90
23411;DHT22;11878;51.774;7.220;2023-05-21T19:34:22;20.10;99.90